Time;durP1;ratioP1;P1;durP2;ratioP2;P2;SDS_P1;SDS_P2;PMS_P1;PMS_P2;Temp;Humidity;BMP_temperature;BMP_pressure;BME280_temperature;BME280_humidity;BME280_pressure;Samples;Min_cycle;Max_cycle;Signal;HPM_P1;HPM_P2
2022/09/23 00:01:48;;;;;;;20.47;18.73;;;8.90;99.90;;;;;;4993058;28;20945;-72
2022/09/23 00:04:15;;;;;;;18.97;17.77;;;8.80;99.90;;;;;;4991477;28;20482;-72
2022/09/23 00:06:42;;;;;;;21.90;20.20;;;8.80;99.90;;;;;;4992969;28;20629;-72
2022/09/23 00:09:09;;;;;;;21.50;20.20;;;8.80;99.90;;;;;;4992840;28;20462;-72
2022/09/23 00:11:36;;;;;;;20.70;19.10;;;8.70;99.90;;;;;;4993130;28;20458;-72
2022/09/23 00:14:04;;;;;;;21.37;20.00;;;8.70;99.90;;;;;;4992806;28;20483;-72
2022/09/23 00:16:34;;;;;;;23.33;21.43;;;8.70;99.90;;;;;;4992641;28;20465;-73
2022/09/23 00:19:01;;;;;;;22.53;21.03;;;8.60;99.90;;;;;;4992625;28;20455;-72
2022/09/23 00:21:28;;;;;;;19.67;18.27;;;8.60;99.90;;;;;;4992619;28;20483;-72
2022/09/23 00:23:55;;;;;;;20.87;19.47;;;8.50;99.90;;;;;;4992605;28;20454;-72
2022/09/23 00:26:22;;;;;;;20.77;19.47;;;8.50;99.90;;;;;;4992846;28;20462;-72
2022/09/23 00:28:50;;;;;;;21.20;19.80;;;8.50;99.90;;;;;;4992644;28;20517;-72
2022/09/23 00:31:21;;;;;;;21.67;19.97;;;8.50;99.90;;;;;;4992512;28;20450;-72
2022/09/23 00:33:47;;;;;;;21.97;20.27;;;8.50;99.90;;;;;;4992377;28;20559;-72
2022/09/23 00:36:16;;;;;;;21.70;20.40;;;8.50;99.90;;;;;;4992378;28;20470;-71
2022/09/23 00:38:43;;;;;;;22.50;20.57;;;8.50;99.90;;;;;;4992379;28;20694;-71
2022/09/23 00:41:10;;;;;;;21.70;19.97;;;8.50;99.90;;;;;;4992259;28;20960;-72
2022/09/23 00:43:40;;;;;;;21.07;19.60;;;8.40;99.90;;;;;;4992394;28;20964;-71
2022/09/23 00:46:08;;;;;;;21.73;20.13;;;8.50;99.90;;;;;;4992517;28;20489;-71
2022/09/23 00:48:38;;;;;;;21.03;19.33;;;8.40;99.90;;;;;;4992359;28;20458;-72
2022/09/23 00:51:09;;;;;;;22.70;20.60;;;8.30;99.90;;;;;;4992232;28;20455;-72
2022/09/23 00:53:37;;;;;;;20.00;18.57;;;8.30;99.90;;;;;;4992187;28;20490;-71
2022/09/23 00:56:07;;;;;;;20.03;18.63;;;8.10;99.90;;;;;;4992144;28;20454;-72
2022/09/23 00:58:36;;;;;;;20.73;19.40;;;8.10;99.90;;;;;;4992010;28;20457;-72
2022/09/23 01:01:04;;;;;;;23.40;21.63;;;8.10;99.90;;;;;;4991855;28;20459;-71
2022/09/23 01:03:31;;;;;;;23.43;21.43;;;8.00;99.90;;;;;;4991485;28;20479;-72
2022/09/23 01:05:59;;;;;;;22.47;20.87;;;8.00;99.90;;;;;;4991892;28;20718;-72
2022/09/23 01:08:27;;;;;;;22.90;21.20;;;8.00;99.90;;;;;;4991664;28;20463;-71
2022/09/23 01:11:02;;;;;;;22.50;20.80;;;7.90;99.90;;;;;;4991765;28;20456;-71
2022/09/23 01:13:35;;;;;;;22.83;21.13;;;7.90;99.90;;;;;;4991440;28;20522;-71
2022/09/23 01:16:08;;;;;;;21.90;20.30;;;7.80;99.90;;;;;;4991427;28;20454;-71
2022/09/23 01:18:43;;;;;;;22.13;20.33;;;7.90;99.90;;;;;;4991853;28;20455;-71
2022/09/23 01:21:32;;;;;;;22.87;20.97;;;8.00;99.90;;;;;;4991570;28;20453;-71
2022/09/23 01:24:35;;;;;;;21.40;19.90;;;8.00;99.90;;;;;;4991426;28;20458;-72
2022/09/23 01:27:09;;;;;;;22.33;20.77;;;8.00;99.90;;;;;;4991376;28;20449;-72
2022/09/23 01:30:15;;;;;;;22.27;20.47;;;8.00;99.90;;;;;;4991592;28;20496;-72
2022/09/23 01:33:10;;;;;;;23.83;21.80;;;8.00;99.90;;;;;;4991264;28;20458;-72
2022/09/23 01:35:58;;;;;;;22.43;20.73;;;8.00;99.90;;;;;;4977989;28;20545;-72
2022/09/23 01:38:36;;;;;;;23.87;21.97;;;8.00;99.90;;;;;;4990877;28;20852;-72
2022/09/23 01:41:11;;;;;;;24.67;22.73;;;8.00;99.90;;;;;;4990903;28;20461;-72
2022/09/23 01:43:45;;;;;;;25.33;23.30;;;8.00;99.90;;;;;;4990604;28;20452;-72
2022/09/23 01:46:19;;;;;;;23.33;21.63;;;8.00;99.90;;;;;;4990583;28;20459;-71
2022/09/23 01:48:51;;;;;;;23.50;21.83;;;8.00;99.90;;;;;;4990666;28;21015;-72
2022/09/23 01:51:23;;;;;;;24.60;22.20;;;8.00;99.90;;;;;;4990693;28;20454;-72
2022/09/23 01:53:56;;;;;;;24.70;22.90;;;8.00;99.90;;;;;;4990649;28;20483;-72
2022/09/23 01:56:26;;;;;;;26.10;24.10;;;8.00;99.90;;;;;;4990790;28;20505;-71
2022/09/23 01:59:01;;;;;;;25.20;23.20;;;8.00;99.90;;;;;;4990746;28;20454;-71
2022/09/23 02:01:32;;;;;;;24.20;22.37;;;8.00;99.90;;;;;;4990502;28;20481;-71
2022/09/23 02:04:04;;;;;;;25.13;23.03;;;8.00;99.90;;;;;;4990095;28;20573;-72
2022/09/23 02:06:36;;;;;;;25.20;23.17;;;7.90;99.90;;;;;;4990289;28;20545;-72
2022/09/23 02:09:07;;;;;;;25.80;23.57;;;7.90;99.90;;;;;;4990252;28;20821;-72
2022/09/23 02:11:36;;;;;;;23.53;21.70;;;7.90;99.90;;;;;;4990269;28;20458;-72
2022/09/23 02:14:09;;;;;;;23.33;21.57;;;7.90;99.90;;;;;;4990248;28;20497;-72
2022/09/23 02:16:40;;;;;;;23.53;21.53;;;7.80;99.90;;;;;;4990646;28;20513;-71
2022/09/23 02:19:13;;;;;;;25.00;23.03;;;7.80;99.90;;;;;;4990433;28;20466;-71
2022/09/23 02:21:43;;;;;;;24.37;22.47;;;7.80;99.90;;;;;;4990287;28;20858;-71
2022/09/23 02:24:14;;;;;;;26.30;24.00;;;7.80;99.90;;;;;;4990086;28;20890;-71
2022/09/23 02:26:47;;;;;;;25.50;23.43;;;7.80;99.90;;;;;;4989128;28;20482;-72
2022/09/23 02:29:20;;;;;;;25.83;23.27;;;7.70;99.90;;;;;;4989989;28;20478;-71
2022/09/23 02:31:56;;;;;;;25.50;23.17;;;7.70;99.90;;;;;;4989918;28;20458;-72
2022/09/23 02:34:34;;;;;;;25.00;22.60;;;7.70;99.90;;;;;;4990049;28;20578;-71
2022/09/23 02:37:10;;;;;;;23.20;21.43;;;7.70;99.90;;;;;;4989707;28;20462;-72
2022/09/23 02:39:47;;;;;;;24.00;22.30;;;7.70;99.90;;;;;;4990002;28;20455;-72
2022/09/23 02:42:18;;;;;;;23.50;21.70;;;7.70;99.90;;;;;;4989714;28;20473;-71
2022/09/23 02:44:44;;;;;;;23.47;21.23;;;7.70;99.90;;;;;;4989662;28;20544;-72
2022/09/23 02:47:11;;;;;;;22.87;20.80;;;7.70;99.90;;;;;;4989753;28;20451;-71
2022/09/23 03:05:22;;;;;;;26.30;23.73;;;7.50;99.90;;;;;;5843233;23;20962;-70
2022/09/23 03:08:03;;;;;;;26.50;24.27;;;7.50;99.90;;;;;;4969307;28;20509;-73
2022/09/23 03:10:40;;;;;;;25.93;23.73;;;7.40;99.90;;;;;;4969581;28;20522;-73
2022/09/23 03:13:16;;;;;;;27.10;24.90;;;7.40;99.90;;;;;;4969414;28;20457;-72
2022/09/23 03:15:51;;;;;;;27.47;25.37;;;7.40;99.90;;;;;;4969920;28;20578;-71
2022/09/23 03:18:21;;;;;;;29.03;26.67;;;7.40;99.90;;;;;;4970128;28;20855;-72
2022/09/23 03:20:53;;;;;;;28.90;26.40;;;7.40;99.90;;;;;;4969894;28;20537;-74
2022/09/23 03:23:23;;;;;;;26.60;24.70;;;7.30;99.90;;;;;;4969722;28;21000;-72
2022/09/23 03:25:53;;;;;;;25.70;23.60;;;7.30;99.90;;;;;;4969791;28;20519;-72
2022/09/23 03:28:21;;;;;;;24.73;22.80;;;7.30;99.90;;;;;;4969824;28;20965;-71
2022/09/23 03:30:49;;;;;;;26.13;23.73;;;7.30;99.90;;;;;;4969926;28;20941;-72
2022/09/23 03:33:18;;;;;;;28.07;25.80;;;7.30;99.90;;;;;;4969760;28;20455;-71
2022/09/23 03:38:42;;;;;;;27.37;24.90;;;7.30;99.90;;;;;;4972653;28;21032;-71
2022/09/23 03:41:11;;;;;;;25.90;23.90;;;7.30;99.90;;;;;;4973332;28;20470;-71
2022/09/23 03:43:39;;;;;;;25.70;23.70;;;7.20;99.90;;;;;;4973340;28;20890;-72
2022/09/23 03:46:07;;;;;;;26.30;24.40;;;7.20;99.90;;;;;;4972584;28;20447;-70
2022/09/23 03:48:34;;;;;;;24.60;22.70;;;7.20;99.90;;;;;;4972395;28;20455;-71
2022/09/23 03:51:17;;;;;;;25.13;22.83;;;7.20;99.90;;;;;;4972114;28;20821;-72
2022/09/23 03:53:44;;;;;;;25.63;23.53;;;7.20;99.90;;;;;;4972282;28;20929;-71
2022/09/23 03:56:11;;;;;;;24.57;22.80;;;7.10;99.90;;;;;;4972284;28;20491;-71
2022/09/23 03:58:37;;;;;;;25.30;23.20;;;7.10;99.90;;;;;;4971867;28;20555;-71
2022/09/23 04:01:04;;;;;;;25.63;23.37;;;7.10;99.90;;;;;;4971890;28;20945;-71
2022/09/23 04:03:31;;;;;;;22.90;21.00;;;7.10;99.90;;;;;;4971881;28;20499;-71
2022/09/23 04:05:58;;;;;;;24.93;22.80;;;7.00;99.90;;;;;;4971955;28;20482;-71
2022/09/23 04:08:26;;;;;;;26.23;23.60;;;7.00;99.90;;;;;;4972294;28;20451;-71
2022/09/23 04:10:52;;;;;;;25.37;23.53;;;7.00;99.90;;;;;;4971983;28;20774;-71
2022/09/23 04:13:19;;;;;;;25.53;23.50;;;7.00;99.90;;;;;;4971758;28;20465;-71
2022/09/23 04:15:49;;;;;;;26.47;23.97;;;7.00;99.90;;;;;;4971665;28;20494;-71
2022/09/23 04:18:16;;;;;;;25.23;22.90;;;7.00;99.90;;;;;;4971736;28;20458;-71
2022/09/23 04:20:42;;;;;;;24.87;22.03;;;7.00;99.90;;;;;;4971934;28;20454;-72
2022/09/23 04:23:09;;;;;;;25.17;23.10;;;7.00;99.90;;;;;;4971524;28;20462;-72
2022/09/23 04:25:44;;;;;;;23.87;22.00;;;7.00;99.90;;;;;;4971531;28;20985;-71
2022/09/23 04:28:11;;;;;;;24.10;22.17;;;7.00;99.90;;;;;;4971782;28;20505;-72
2022/09/23 04:30:40;;;;;;;24.93;23.23;;;6.90;99.90;;;;;;4971439;28;20547;-72
2022/09/23 04:33:06;;;;;;;23.73;22.03;;;7.00;99.90;;;;;;4971498;28;20452;-72
2022/09/23 04:35:33;;;;;;;25.90;23.80;;;6.90;99.90;;;;;;4971134;28;20488;-72
2022/09/23 04:38:00;;;;;;;25.17;23.37;;;6.90;99.90;;;;;;4971406;28;20466;-71
2022/09/23 04:40:26;;;;;;;24.83;22.83;;;6.90;99.90;;;;;;4971602;28;20451;-72
2022/09/23 04:42:54;;;;;;;23.10;21.43;;;7.00;99.90;;;;;;4971389;28;20462;-72
2022/09/23 04:45:21;;;;;;;24.83;23.03;;;6.90;99.90;;;;;;4971351;28;20455;-72
2022/09/23 04:47:48;;;;;;;23.83;22.07;;;6.90;99.90;;;;;;4971305;28;20463;-72
2022/09/23 04:50:15;;;;;;;24.57;22.67;;;6.90;99.90;;;;;;4971012;28;20842;-72
2022/09/23 04:52:41;;;;;;;24.13;22.37;;;6.90;99.90;;;;;;4984777;28;20470;-72
2022/09/23 04:55:09;;;;;;;23.43;21.43;;;6.90;99.90;;;;;;4990554;28;20502;-71
2022/09/23 04:57:36;;;;;;;23.53;21.90;;;6.90;99.90;;;;;;4990532;28;20973;-72
2022/09/23 05:00:05;;;;;;;24.97;23.17;;;6.90;99.90;;;;;;4990123;28;20466;-72
2022/09/23 05:02:34;;;;;;;25.30;23.30;;;6.90;99.90;;;;;;4990178;28;21000;-71
2022/09/23 05:05:01;;;;;;;23.83;21.47;;;6.90;99.90;;;;;;4990461;28;20486;-72
2022/09/23 05:07:27;;;;;;;23.73;21.73;;;6.90;99.90;;;;;;4991071;28;20455;-72
2022/09/23 05:09:54;;;;;;;24.17;22.17;;;6.90;99.90;;;;;;4990627;28;20454;-72
2022/09/23 05:12:20;;;;;;;24.17;22.40;;;6.80;99.90;;;;;;4990467;28;20521;-71
2022/09/23 05:14:47;;;;;;;24.60;22.70;;;6.90;99.90;;;;;;4990061;28;20490;-73
2022/09/23 05:17:15;;;;;;;23.17;21.20;;;6.90;99.90;;;;;;4990196;28;20465;-72
2022/09/23 05:19:42;;;;;;;24.30;21.97;;;6.90;99.90;;;;;;4990207;28;20462;-72
2022/09/23 05:22:08;;;;;;;24.40;22.00;;;6.90;99.90;;;;;;4989928;28;20533;-72
2022/09/23 05:24:35;;;;;;;22.27;20.63;;;7.00;99.90;;;;;;4988149;28;20461;-72
2022/09/23 05:27:04;;;;;;;22.63;20.80;;;7.00;99.90;;;;;;4988453;28;20999;-72
2022/09/23 05:29:30;;;;;;;22.83;21.10;;;7.00;99.90;;;;;;4988442;28;20490;-73
2022/09/23 05:31:57;;;;;;;25.30;23.20;;;7.10;99.90;;;;;;4990414;28;20671;-72
2022/09/23 05:34:25;;;;;;;22.90;21.30;;;7.10;99.90;;;;;;4990252;28;20458;-71
2022/09/23 05:36:52;;;;;;;24.10;21.50;;;7.10;99.90;;;;;;4989949;28;20446;-72
2022/09/23 05:39:18;;;;;;;24.50;22.30;;;7.10;99.90;;;;;;4990074;28;20606;-71
2022/09/23 05:41:45;;;;;;;24.50;22.70;;;7.10;99.90;;;;;;4990018;28;20473;-72
2022/09/23 05:44:12;;;;;;;25.60;23.50;;;7.20;99.90;;;;;;4990196;28;20451;-71
2022/09/23 05:46:38;;;;;;;24.77;22.90;;;7.20;99.90;;;;;;4989744;28;20443;-73
2022/09/23 05:49:06;;;;;;;28.93;26.20;;;7.20;99.90;;;;;;4989974;28;20458;-71
2022/09/23 05:51:34;;;;;;;24.30;22.57;;;7.30;99.90;;;;;;4989885;28;20454;-72
2022/09/23 05:54:02;;;;;;;25.43;23.03;;;7.30;99.90;;;;;;4989808;28;21019;-72
2022/09/23 05:56:30;;;;;;;24.90;22.70;;;7.40;99.90;;;;;;4989742;28;21003;-72
2022/09/23 05:59:06;;;;;;;24.93;22.63;;;7.50;99.90;;;;;;4990054;28;20447;-73
2022/09/23 06:01:35;;;;;;;23.30;21.60;;;7.70;99.90;;;;;;4987311;28;20546;-72
2022/09/23 06:04:03;;;;;;;23.40;21.20;;;8.10;99.90;;;;;;4989204;28;20474;-73
2022/09/23 06:06:32;;;;;;;23.90;21.50;;;8.40;99.90;;;;;;4985686;28;21002;-74
2022/09/23 06:09:00;;;;;;;23.03;20.93;;;8.70;99.90;;;;;;4989788;28;20513;-74
2022/09/23 06:11:30;;;;;;;20.20;18.73;;;9.00;99.90;;;;;;4989695;28;20458;-73
2022/09/23 06:13:59;;;;;;;20.90;19.50;;;9.30;99.90;;;;;;4989762;28;20454;-73
2022/09/23 06:16:27;;;;;;;20.53;19.10;;;9.50;99.90;;;;;;4989461;28;20491;-73
2022/09/23 06:18:54;;;;;;;18.10;17.10;;;9.60;99.90;;;;;;4989490;28;20453;-74
2022/09/23 06:21:21;;;;;;;17.00;16.00;;;9.70;99.90;;;;;;4989424;28;20952;-74
2022/09/23 06:23:47;;;;;;;19.13;17.80;;;9.80;99.90;;;;;;4989335;28;20671;-74
2022/09/23 06:26:16;;;;;;;19.57;17.83;;;10.00;99.90;;;;;;4989808;28;20451;-74
2022/09/23 06:28:44;;;;;;;19.43;18.20;;;10.20;99.90;;;;;;4989780;28;20462;-74
2022/09/23 06:31:12;;;;;;;18.50;17.07;;;10.20;99.90;;;;;;4989785;28;20447;-74
2022/09/23 06:33:39;;;;;;;22.17;20.57;;;10.30;99.90;;;;;;4989389;28;20447;-73
2022/09/23 06:36:07;;;;;;;19.60;18.20;;;10.30;99.90;;;;;;4989183;28;20486;-73
2022/09/23 06:38:34;;;;;;;18.60;17.20;;;10.50;99.90;;;;;;4989293;28;20888;-74
2022/09/23 06:41:02;;;;;;;19.50;18.20;;;10.80;99.90;;;;;;4989414;28;20447;-72
2022/09/23 06:43:30;;;;;;;18.03;16.93;;;10.80;99.90;;;;;;4989778;28;20489;-73
2022/09/23 06:45:58;;;;;;;17.70;16.70;;;11.10;99.90;;;;;;4987817;28;20455;-74
2022/09/23 06:48:25;;;;;;;17.43;16.27;;;11.30;99.90;;;;;;4989603;28;20948;-74
2022/09/23 06:50:52;;;;;;;17.03;15.93;;;11.30;99.90;;;;;;4989434;28;20532;-73
2022/09/23 06:53:21;;;;;;;15.57;14.67;;;11.60;99.90;;;;;;4989174;28;20469;-73
2022/09/23 06:55:48;;;;;;;17.77;16.77;;;11.90;99.90;;;;;;4989161;28;20557;-73
2022/09/23 06:58:15;;;;;;;15.30;14.47;;;11.60;99.90;;;;;;4989394;28;20890;-72
2022/09/23 07:00:44;;;;;;;17.53;16.33;;;11.50;99.90;;;;;;4989430;28;20454;-73
2022/09/23 07:03:10;;;;;;;17.20;16.00;;;11.50;99.90;;;;;;4989407;28;20459;-74
2022/09/23 07:05:38;;;;;;;16.03;15.03;;;11.60;99.90;;;;;;4989066;28;20485;-74
2022/09/23 07:08:08;;;;;;;16.97;16.03;;;11.70;99.90;;;;;;4989086;28;20536;-73
2022/09/23 07:10:35;;;;;;;16.53;15.53;;;11.90;99.90;;;;;;4989291;28;20454;-73
2022/09/23 07:13:02;;;;;;;16.27;15.37;;;12.20;99.90;;;;;;4991406;28;20458;-74
2022/09/23 07:15:29;;;;;;;15.90;15.00;;;12.30;99.90;;;;;;4993284;28;20490;-74
2022/09/23 07:17:57;;;;;;;16.50;15.30;;;12.30;99.90;;;;;;4993049;28;20520;-74
2022/09/23 07:20:24;;;;;;;17.43;16.33;;;12.70;99.90;;;;;;4993161;28;20983;-74
2022/09/23 07:22:51;;;;;;;17.30;16.27;;;12.90;99.90;;;;;;4992754;28;20952;-75
2022/09/23 07:25:18;;;;;;;17.00;15.97;;;12.80;99.90;;;;;;4992819;28;20822;-74
2022/09/23 07:27:46;;;;;;;16.30;15.40;;;12.90;99.90;;;;;;4992919;28;20450;-74
2022/09/23 07:30:14;;;;;;;16.90;15.80;;;13.10;99.90;;;;;;4992894;28;20545;-74
2022/09/23 07:32:41;;;;;;;15.77;14.87;;;13.20;99.90;;;;;;4993322;28;20541;-75
2022/09/23 07:35:10;;;;;;;17.47;15.90;;;13.40;99.90;;;;;;4992512;28;20454;-76
2022/09/23 07:37:36;;;;;;;16.67;15.87;;;13.80;99.90;;;;;;4964496;28;20473;-76
2022/09/23 07:40:04;;;;;;;15.83;14.97;;;14.20;99.90;;;;;;4954480;28;20456;-75
2022/09/23 07:42:30;;;;;;;16.53;15.40;;;14.30;99.90;;;;;;4954130;28;20456;-74
2022/09/23 07:44:57;;;;;;;16.27;15.17;;;14.50;99.90;;;;;;4977925;28;20464;-75
2022/09/23 07:47:24;;;;;;;17.13;16.00;;;14.60;99.90;;;;;;4970721;28;20945;-75
2022/09/23 07:49:50;;;;;;;15.30;14.50;;;14.90;99.90;;;;;;4971679;28;20512;-76
2022/09/23 07:52:19;;;;;;;16.50;15.47;;;14.90;99.90;;;;;;4973492;28;20463;-75
2022/09/23 07:54:47;;;;;;;15.47;14.67;;;15.30;99.90;;;;;;4973441;28;20456;-75
2022/09/23 07:57:16;;;;;;;16.00;15.07;;;15.40;99.90;;;;;;4973353;28;20581;-75
2022/09/23 07:59:43;;;;;;;15.20;14.40;;;14.90;99.90;;;;;;4972096;28;20491;-75
2022/09/23 08:02:14;;;;;;;15.40;14.40;;;14.80;99.90;;;;;;4972999;28;20455;-76
2022/09/23 08:04:40;;;;;;;16.07;15.00;;;15.20;99.90;;;;;;4973232;28;20486;-75
2022/09/23 08:07:07;;;;;;;16.07;15.30;;;15.10;99.90;;;;;;4973410;28;20447;-73
2022/09/23 08:09:40;;;;;;;16.60;15.80;;;15.00;99.90;;;;;;4973203;28;20459;-76
2022/09/23 08:12:07;;;;;;;16.37;15.57;;;14.90;99.90;;;;;;4973130;28;20464;-74
2022/09/23 08:14:34;;;;;;;16.43;15.50;;;14.90;99.90;;;;;;4973012;28;20455;-74
2022/09/23 08:17:01;;;;;;;15.93;15.03;;;14.90;99.90;;;;;;4973303;28;20483;-75
2022/09/23 08:19:28;;;;;;;16.10;15.13;;;14.80;99.90;;;;;;4973841;28;20452;-75
2022/09/23 08:21:55;;;;;;;17.10;16.00;;;14.80;99.90;;;;;;4973483;28;20822;-76
2022/09/23 08:24:23;;;;;;;17.10;16.07;;;14.90;99.90;;;;;;4972155;28;20478;-75
2022/09/23 08:26:52;;;;;;;16.40;15.50;;;15.10;99.90;;;;;;4973049;28;20535;-76
2022/09/23 08:29:21;;;;;;;16.50;15.37;;;15.30;99.90;;;;;;4972923;28;20622;-76
2022/09/23 08:31:48;;;;;;;15.63;14.63;;;15.50;99.90;;;;;;4973237;28;20458;-76
2022/09/23 08:34:16;;;;;;;16.03;15.10;;;15.60;99.90;;;;;;4972962;28;20509;-76
2022/09/23 08:36:43;;;;;;;16.17;15.37;;;15.50;99.90;;;;;;4973112;28;20487;-75
2022/09/23 08:39:13;;;;;;;16.20;15.37;;;15.50;99.90;;;;;;4973071;28;20467;-75
2022/09/23 08:41:48;;;;;;;16.87;15.87;;;15.70;99.90;;;;;;4973213;28;20460;-75
2022/09/23 08:44:19;;;;;;;16.70;15.57;;;15.80;99.90;;;;;;4971636;28;20459;-75
2022/09/23 08:46:51;;;;;;;16.47;15.60;;;15.80;99.90;;;;;;4973028;28;20470;-74
2022/09/23 08:49:24;;;;;;;16.73;15.63;;;15.80;99.90;;;;;;4972441;28;20467;-74
2022/09/23 08:51:54;;;;;;;16.40;15.47;;;15.90;99.90;;;;;;4973001;28;20456;-74
2022/09/23 08:54:21;;;;;;;14.70;13.90;;;16.10;99.60;;;;;;4972628;28;20514;-75
2022/09/23 08:56:51;;;;;;;14.87;14.00;;;16.30;99.90;;;;;;4972580;28;20484;-75
2022/09/23 08:59:27;;;;;;;15.97;15.17;;;16.80;99.00;;;;;;4972627;28;20451;-74
2022/09/23 09:02:00;;;;;;;15.37;14.57;;;17.10;97.20;;;;;;4973009;28;20459;-76
2022/09/23 09:04:43;;;;;;;15.23;14.43;;;17.50;96.70;;;;;;4973088;28;20474;-74
2022/09/23 09:07:14;;;;;;;16.23;15.23;;;17.40;96.30;;;;;;4972858;28;20485;-76
2022/09/23 09:09:47;;;;;;;14.87;14.10;;;17.70;96.40;;;;;;4973140;28;20448;-76
2022/09/23 09:12:17;;;;;;;15.63;14.80;;;17.70;95.90;;;;;;4973057;28;20816;-74
2022/09/23 09:14:53;;;;;;;14.20;13.50;;;17.90;95.10;;;;;;4972970;28;20447;-75
2022/09/23 09:17:27;;;;;;;14.90;14.20;;;17.80;94.90;;;;;;4971726;28;20512;-75
2022/09/23 09:19:56;;;;;;;14.47;13.87;;;17.90;95.00;;;;;;4971893;28;20448;-74
2022/09/23 09:22:39;;;;;;;15.10;14.30;;;18.00;94.40;;;;;;4972116;28;20452;-75
2022/09/23 09:25:18;;;;;;;16.60;15.47;;;18.20;94.20;;;;;;4972009;28;20454;-76
2022/09/23 09:27:47;;;;;;;14.73;14.13;;;18.40;93.30;;;;;;4972268;28;20866;-76
2022/09/23 09:30:16;;;;;;;15.23;14.43;;;18.30;93.70;;;;;;4972088;28;20467;-76
2022/09/23 09:32:47;;;;;;;14.77;13.93;;;17.90;93.90;;;;;;4972875;28;20463;-75
2022/09/23 09:35:23;;;;;;;15.77;14.87;;;17.80;94.50;;;;;;4972208;28;20837;-75
2022/09/23 09:37:50;;;;;;;15.87;15.10;;;18.30;93.90;;;;;;4972022;28;20494;-74
2022/09/23 09:40:19;;;;;;;16.90;16.00;;;18.80;93.10;;;;;;4971637;28;20886;-75
2022/09/23 09:42:48;;;;;;;16.77;15.87;;;19.10;92.80;;;;;;4971491;28;20477;-75
2022/09/23 09:45:23;;;;;;;14.50;13.90;;;19.30;93.20;;;;;;4971838;28;20502;-75
2022/09/23 09:47:59;;;;;;;16.33;15.00;;;20.00;91.40;;;;;;4971548;28;20447;-75
2022/09/23 09:50:43;;;;;;;16.73;15.93;;;20.20;90.70;;;;;;4971938;28;20490;-75
2022/09/23 09:53:24;;;;;;;18.10;17.20;;;20.10;90.50;;;;;;4971796;28;20539;-75
2022/09/23 09:55:59;;;;;;;18.60;17.70;;;20.80;89.60;;;;;;4969709;28;20992;-75
2022/09/23 09:58:28;;;;;;;17.87;16.97;;;20.70;88.80;;;;;;4971510;28;20873;-75
2022/09/23 10:00:57;;;;;;;16.60;15.80;;;20.90;87.80;;;;;;4972410;28;20554;-76
2022/09/23 10:03:31;;;;;;;16.83;15.90;;;21.40;86.50;;;;;;4971956;28;20456;-75
2022/09/23 10:05:58;;;;;;;16.60;15.70;;;22.30;84.00;;;;;;4972091;28;20487;-76
2022/09/23 10:08:31;;;;;;;17.37;16.40;;;22.20;81.80;;;;;;4972088;28;20487;-76
2022/09/23 10:11:02;;;;;;;15.00;14.13;;;21.90;83.00;;;;;;4972360;28;20463;-76
2022/09/23 10:13:29;;;;;;;16.67;15.87;;;22.10;82.10;;;;;;4972182;28;20459;-77
2022/09/23 10:15:59;;;;;;;14.37;13.77;;;22.50;81.30;;;;;;4971857;28;20506;-75
2022/09/23 10:18:30;;;;;;;15.70;14.90;;;22.90;79.30;;;;;;4971174;28;20550;-75
2022/09/23 10:21:05;;;;;;;15.40;14.60;;;23.20;77.90;;;;;;4972064;28;20503;-75
2022/09/23 10:23:32;;;;;;;16.70;16.00;;;23.40;77.00;;;;;;4971723;28;20451;-75
2022/09/23 10:26:01;;;;;;;15.87;15.07;;;23.20;77.10;;;;;;4969872;28;20824;-77
2022/09/23 10:28:49;;;;;;;17.03;15.77;;;23.50;76.80;;;;;;4972396;28;20942;-74
2022/09/23 10:31:24;;;;;;;16.20;15.40;;;23.40;76.70;;;;;;4971818;28;20577;-76
2022/09/23 10:33:53;;;;;;;16.80;15.90;;;24.50;74.60;;;;;;4971574;28;20487;-75
2022/09/23 10:36:20;;;;;;;17.10;16.20;;;25.40;70.60;;;;;;4971885;28;20831;-76
2022/09/23 10:38:50;;;;;;;15.77;14.97;;;25.00;70.10;;;;;;4971509;28;20456;-75
2022/09/23 10:47:27;;;;;;;16.50;15.70;;;25.90;68.80;;;;;;4971693;28;20527;-75
2022/09/23 10:50:14;;;;;;;16.23;15.63;;;27.10;64.00;;;;;;4975467;28;20451;-76
2022/09/23 10:52:59;;;;;;;15.80;15.10;;;27.10;63.80;;;;;;4975080;28;20455;-76
2022/09/23 10:55:38;;;;;;;17.30;16.30;;;26.80;62.80;;;;;;4974969;28;20439;-77
2022/09/23 10:58:38;;;;;;;16.67;15.87;;;27.50;61.50;;;;;;4974704;28;20723;-76
2022/09/23 11:01:16;;;;;;;16.33;15.63;;;27.10;61.40;;;;;;4967747;28;20827;-75
2022/09/23 11:04:00;;;;;;;17.90;16.90;;;27.20;61.60;;;;;;4975441;28;20471;-76
2022/09/23 11:06:40;;;;;;;16.63;15.53;;;26.60;61.80;;;;;;4974707;28;20514;-76
2022/09/23 11:09:20;;;;;;;17.43;16.47;;;26.00;63.80;;;;;;4973247;28;20451;-76
2022/09/23 11:12:00;;;;;;;16.97;16.13;;;26.50;62.70;;;;;;4973686;28;20470;-76
2022/09/23 11:14:45;;;;;;;16.17;15.27;;;25.20;65.80;;;;;;4974008;28;20458;-76
2022/09/23 11:17:34;;;;;;;15.97;15.00;;;24.30;67.60;;;;;;4974138;28;20494;-76
2022/09/23 11:20:31;;;;;;;16.27;15.57;;;24.50;67.80;;;;;;4951414;28;20455;-76
2022/09/23 11:23:19;;;;;;;15.23;14.50;;;25.80;65.80;;;;;;4974269;28;20530;-76
2022/09/23 11:25:55;;;;;;;15.40;14.70;;;26.20;63.50;;;;;;4973805;28;20808;-74
2022/09/23 11:28:49;;;;;;;16.00;15.20;;;27.60;58.60;;;;;;4973275;28;20455;-75
2022/09/23 11:31:29;;;;;;;15.43;14.80;;;27.60;59.20;;;;;;4973160;28;20458;-75
2022/09/23 11:34:10;;;;;;;15.13;14.47;;;28.30;59.00;;;;;;4974619;28;20509;-76
2022/09/23 11:36:42;;;;;;;15.23;14.60;;;29.20;56.10;;;;;;4974589;28;20455;-75
2022/09/23 11:39:14;;;;;;;16.00;15.20;;;30.50;53.40;;;;;;4973672;28;20455;-75
2022/09/23 11:41:43;;;;;;;16.13;15.43;;;30.20;51.70;;;;;;4974135;28;20463;-76
2022/09/23 11:44:16;;;;;;;16.27;15.67;;;30.90;50.30;;;;;;4973408;28;20868;-75
2022/09/23 11:46:48;;;;;;;15.07;14.57;;;31.10;48.40;;;;;;4973657;28;20459;-75
2022/09/23 11:49:20;;;;;;;15.60;14.90;;;31.00;47.00;;;;;;4973330;28;20444;-75
2022/09/23 11:52:01;;;;;;;16.10;15.40;;;30.40;46.40;;;;;;4972081;28;20456;-75
2022/09/23 11:54:33;;;;;;;17.67;16.77;;;29.10;49.40;;;;;;4973281;28;20463;-76
2022/09/23 11:57:03;;;;;;;16.23;15.50;;;30.10;48.70;;;;;;4973175;28;20538;-74
2022/09/23 11:59:40;;;;;;;16.33;15.53;;;31.20;46.40;;;;;;4972899;28;21017;-74
2022/09/23 12:02:19;;;;;;;15.40;14.60;;;31.20;46.90;;;;;;4973226;28;20451;-77
2022/09/23 12:04:51;;;;;;;15.30;14.40;;;30.90;46.90;;;;;;4972918;28;20471;-75
2022/09/23 12:07:26;;;;;;;16.70;15.67;;;28.90;50.10;;;;;;4973089;28;20810;-76
2022/09/23 12:09:59;;;;;;;15.77;14.97;;;29.10;49.90;;;;;;4972959;28;20535;-76
2022/09/23 12:12:35;;;;;;;15.43;14.73;;;28.80;49.80;;;;;;4973421;28;20539;-76
2022/09/23 12:15:09;;;;;;;16.40;15.70;;;28.80;50.70;;;;;;4972626;28;20952;-75
2022/09/23 12:17:55;;;;;;;15.47;14.87;;;27.90;50.50;;;;;;4972123;28;20550;-76
2022/09/23 12:20:46;;;;;;;15.93;15.27;;;27.40;52.60;;;;;;4972295;28;20949;-73
2022/09/23 12:23:29;;;;;;;16.30;15.47;;;28.20;52.50;;;;;;4972619;28;20965;-75
2022/09/23 12:25:59;;;;;;;16.07;15.20;;;29.40;51.10;;;;;;4970760;28;20451;-76
2022/09/23 12:28:30;;;;;;;15.67;14.97;;;28.90;49.90;;;;;;4972510;28;20452;-76
2022/09/23 12:31:01;;;;;;;16.10;15.33;;;27.60;51.80;;;;;;4972625;28;20550;-76
2022/09/23 12:33:31;;;;;;;16.03;15.37;;;27.50;53.50;;;;;;4972559;28;20467;-75
2022/09/23 12:36:04;;;;;;;15.40;14.80;;;28.80;51.20;;;;;;4972528;28;20455;-75
2022/09/23 12:38:35;;;;;;;15.63;14.83;;;29.10;49.90;;;;;;4971793;28;21028;-75
2022/09/23 12:41:17;;;;;;;15.20;14.43;;;29.20;49.80;;;;;;4971775;28;20463;-75
2022/09/23 12:43:53;;;;;;;16.97;16.10;;;29.50;49.70;;;;;;4972727;28;20460;-76
2022/09/23 12:46:24;;;;;;;16.83;16.10;;;29.20;49.20;;;;;;4972364;28;20456;-76
2022/09/23 12:49:06;;;;;;;15.73;15.13;;;28.20;50.60;;;;;;4972502;28;20452;-76
2022/09/23 12:51:33;;;;;;;16.13;15.40;;;28.10;51.30;;;;;;4973142;28;20933;-76
2022/09/23 12:54:23;;;;;;;15.47;14.87;;;27.90;51.70;;;;;;4972815;28;20492;-75
2022/09/23 12:57:10;;;;;;;16.03;15.40;;;28.40;51.50;;;;;;4972609;28;20463;-75
2022/09/23 12:59:58;;;;;;;15.70;15.00;;;28.90;50.20;;;;;;4971630;28;20455;-76
2022/09/23 13:02:31;;;;;;;16.77;16.07;;;28.80;50.60;;;;;;4971741;28;20932;-74
2022/09/23 13:08:07;;;;;;;16.70;16.00;;;28.80;51.50;;;;;;4968027;28;20927;-74
2022/09/23 13:10:41;;;;;;;15.60;14.90;;;28.40;51.30;;;;;;4970413;28;20451;-75
2022/09/23 13:13:18;;;;;;;16.10;15.00;;;28.40;51.70;;;;;;4971782;28;20465;-75
2022/09/23 13:15:46;;;;;;;16.10;15.30;;;27.10;52.70;;;;;;4970865;28;20471;-75
2022/09/23 13:22:09;;;;;;;16.10;15.50;;;26.20;55.40;;;;;;4954758;28;20542;-74
2022/09/23 13:24:42;;;;;;;15.60;14.90;;;27.00;54.10;;;;;;4971101;28;20515;-74